Time;durP1;ratioP1;P1;durP2;ratioP2;P2;SDS_P1;SDS_P2;PMS_P1;PMS_P2;Temp;Humidity;BMP_temperature;BMP_pressure;BME280_temperature;BME280_humidity;BME280_pressure;Samples;Min_cycle;Max_cycle;Signal;HPM_P1;HPM_P2
2022/07/03 00:00:04;;;;;;;12.13;6.85;;;;;;;26.94;100.00;100394.28;5114560;28;20205;-66
2022/07/03 00:02:31;;;;;;;11.88;6.63;;;;;;;26.74;100.00;100399.66;5114628;28;20202;-67
2022/07/03 00:04:58;;;;;;;13.00;6.60;;;;;;;26.63;100.00;100385.97;5113351;28;20614;-68
2022/07/03 00:07:26;;;;;;;8.15;6.10;;;;;;;26.80;100.00;100390.50;5114202;28;20197;-67
2022/07/03 00:09:53;;;;;;;7.47;6.10;;;;;;;26.79;100.00;100383.50;5113230;28;20206;-66
2022/07/03 00:12:20;;;;;;;8.35;6.25;;;;;;;26.80;100.00;100382.53;5114415;28;20212;-67
2022/07/03 00:14:47;;;;;;;9.60;5.70;;;;;;;26.52;100.00;100367.84;5113586;28;20205;-66
2022/07/03 00:17:14;;;;;;;13.38;6.13;;;;;;;26.59;100.00;100392.38;5113666;28;20593;-67
2022/07/03 00:19:41;;;;;;;7.43;5.78;;;;;;;26.41;100.00;100385.22;5114283;28;20201;-68
2022/07/03 00:22:13;;;;;;;14.52;6.00;;;;;;;26.51;100.00;100381.22;5113512;28;20185;-67
2022/07/03 00:24:45;;;;;;;7.13;5.97;;;;;;;26.43;100.00;100384.22;5113317;28;20232;-67
2022/07/03 00:27:12;;;;;;;6.07;5.45;;;;;;;26.31;100.00;100365.31;5113126;28;20242;-67
2022/07/03 00:29:42;;;;;;;7.25;5.85;;;;;;;26.17;100.00;100370.34;5113949;28;20193;-68
2022/07/03 00:32:11;;;;;;;6.95;6.15;;;;;;;25.79;100.00;100301.13;5113715;28;20204;-66
2022/07/03 00:34:38;;;;;;;7.72;5.43;;;;;;;26.02;100.00;100362.13;5113907;28;20198;-68
2022/07/03 00:37:07;;;;;;;6.28;5.68;;;;;;;25.77;100.00;100340.19;5113291;28;21002;-68
2022/07/03 00:39:37;;;;;;;7.07;5.93;;;;;;;26.02;100.00;100367.44;5113677;28;20671;-67
2022/07/03 00:42:07;;;;;;;8.38;6.10;;;;;;;25.84;100.00;100373.53;5113725;28;20201;-67
2022/07/03 00:44:43;;;;;;;6.75;6.15;;;;;;;25.80;100.00;100373.72;5112149;28;20232;-67
2022/07/03 00:47:12;;;;;;;12.40;6.13;;;;;;;25.76;100.00;100370.34;5113147;28;20193;-68
2022/07/03 00:49:40;;;;;;;9.95;6.40;;;;;;;25.86;100.00;100366.38;5113402;28;20189;-68
2022/07/03 00:52:10;;;;;;;8.63;6.60;;;;;;;25.76;100.00;100362.38;5113617;28;20224;-68
2022/07/03 00:54:39;;;;;;;9.07;5.90;;;;;;;25.79;100.00;100359.56;5111618;28;20700;-68
2022/07/03 00:57:13;;;;;;;8.10;5.82;;;;;;;25.90;100.00;100357.31;5078094;28;20193;-68
2022/07/03 00:59:40;;;;;;;6.22;5.68;;;;;;;25.91;100.00;100361.72;5112922;28;20197;-68
2022/07/03 01:02:12;;;;;;;9.30;6.18;;;;;;;25.90;100.00;100357.31;5113182;28;20190;-68
2022/07/03 01:04:51;;;;;;;7.57;5.88;;;;;;;25.83;100.00;100350.53;5113245;28;20224;-68
2022/07/03 01:07:31;;;;;;;8.15;6.55;;;;;;;25.81;100.00;100347.09;5112980;28;20204;-68
2022/07/03 01:10:05;;;;;;;10.38;6.20;;;;;;;25.60;100.00;100348.91;5112577;28;20258;-68
2022/07/03 01:12:55;;;;;;;6.90;6.30;;;;;;;25.50;100.00;100334.25;5113019;28;20200;-68
2022/07/03 01:15:37;;;;;;;10.73;6.65;;;;;;;25.46;100.00;100321.16;5104271;28;20208;-69
2022/07/03 01:18:18;;;;;;;8.48;6.88;;;;;;;25.53;100.00;100342.13;5112954;28;20193;-67
2022/07/03 01:20:50;;;;;;;11.88;6.88;;;;;;;25.57;100.00;100342.84;5111787;28;20528;-67
2022/07/03 01:23:26;;;;;;;9.93;6.53;;;;;;;25.58;100.00;100341.91;5112286;28;20586;-67
2022/07/03 01:25:55;;;;;;;11.73;6.60;;;;;;;25.58;100.00;100329.50;5112403;28;20197;-67
2022/07/03 01:28:23;;;;;;;6.90;6.20;;;;;;;25.69;100.00;100344.97;5100971;28;20281;-67
2022/07/03 01:30:52;;;;;;;7.97;6.85;;;;;;;25.58;100.00;100345.44;5112378;28;20225;-67
2022/07/03 01:33:22;;;;;;;8.70;7.00;;;;;;;25.59;100.00;100344.50;5112470;28;20205;-67
2022/07/03 01:36:05;;;;;;;10.18;6.68;;;;;;;25.57;100.00;100348.16;5077467;28;20198;-69
2022/07/03 01:38:34;;;;;;;9.35;6.72;;;;;;;25.51;100.00;100346.59;5112286;28;20282;-67
2022/07/03 01:41:04;;;;;;;9.02;6.72;;;;;;;25.51;100.00;100348.41;5112159;28;20771;-67
2022/07/03 01:43:32;;;;;;;8.25;6.90;;;;;;;25.35;100.00;100344.63;5111954;28;20221;-68
2022/07/03 01:46:02;;;;;;;8.63;6.93;;;;;;;25.39;100.00;100344.44;5112376;28;20197;-68
2022/07/03 01:48:30;;;;;;;8.02;6.68;;;;;;;25.36;100.00;100339.28;5112551;28;20213;-67
2022/07/03 01:50:57;;;;;;;11.27;6.88;;;;;;;25.33;100.00;100343.84;5112386;28;20194;-67
2022/07/03 01:53:27;;;;;;;7.72;6.53;;;;;;;25.34;100.00;100340.25;5112046;28;20198;-68
2022/07/03 01:55:56;;;;;;;14.40;6.90;;;;;;;25.34;100.00;100319.00;5112173;28;20197;-67
2022/07/03 01:58:25;;;;;;;10.15;7.15;;;;;;;25.49;100.00;100319.22;5112141;28;20220;-67
2022/07/03 02:01:07;;;;;;;7.18;6.47;;;;;;;25.82;100.00;100343.53;5112036;28;20206;-67
2022/07/03 02:03:36;;;;;;;15.00;6.30;;;;;;;25.78;100.00;100320.69;5111856;28;20232;-68
2022/07/03 02:06:07;;;;;;;7.22;6.53;;;;;;;26.03;100.00;100345.25;5111907;28;20571;-67
2022/07/03 02:08:44;;;;;;;10.68;6.00;;;;;;;26.00;100.00;100332.09;5112295;28;20202;-68
2022/07/03 02:11:15;;;;;;;11.80;6.53;;;;;;;26.14;100.00;100344.78;5111897;28;20684;-67
2022/07/03 02:13:56;;;;;;;6.95;6.22;;;;;;;26.20;100.00;100346.31;5111816;28;20198;-68
2022/07/03 02:16:26;;;;;;;12.27;7.63;;;;;;;26.22;100.00;100345.31;5111902;28;20198;-68
2022/07/03 02:18:59;;;;;;;11.10;6.35;;;;;;;26.18;100.00;100346.41;5111972;28;20213;-68
2022/07/03 02:21:29;;;;;;;10.85;5.97;;;;;;;25.81;100.00;100331.16;5111503;28;20193;-67
2022/07/03 02:24:17;;;;;;;7.05;6.35;;;;;;;26.03;100.00;100350.56;5092369;28;20232;-67
2022/07/03 02:26:53;;;;;;;8.68;6.32;;;;;;;25.92;100.00;100344.84;5111554;28;20198;-67
2022/07/03 02:29:29;;;;;;;10.48;6.63;;;;;;;25.93;100.00;100330.66;5111902;28;20656;-67
2022/07/03 02:32:00;;;;;;;12.07;6.90;;;;;;;25.86;100.00;100334.50;5110968;28;20228;-67
2022/07/03 02:34:29;;;;;;;13.68;6.40;;;;;;;26.01;100.00;100333.81;5111401;28;20239;-67
2022/07/03 02:37:04;;;;;;;11.55;6.95;;;;;;;26.02;100.00;100343.50;5111516;28;20193;-67
2022/07/03 02:39:40;;;;;;;10.80;6.65;;;;;;;25.82;100.00;100330.25;5077754;28;20197;-67
2022/07/03 02:42:20;;;;;;;8.27;6.40;;;;;;;25.84;100.00;100341.66;5111972;28;20201;-67
2022/07/03 02:44:53;;;;;;;14.65;6.60;;;;;;;25.91;100.00;100356.41;5111807;28;20220;-68
2022/07/03 02:47:30;;;;;;;8.43;5.90;;;;;;;25.97;100.00;100353.47;5110988;28;20252;-67
2022/07/03 02:50:05;;;;;;;10.73;6.97;;;;;;;26.02;100.00;100362.13;5111734;28;20205;-67
2022/07/03 02:52:42;;;;;;;15.30;6.57;;;;;;;25.91;100.00;100367.03;5111572;28;20262;-67
2022/07/03 02:55:18;;;;;;;7.50;6.60;;;;;;;25.78;100.00;100363.19;5111460;28;20201;-67
2022/07/03 02:57:45;;;;;;;11.82;7.00;;;;;;;25.77;100.00;100347.28;5111523;28;20201;-67
2022/07/03 03:00:14;;;;;;;9.98;7.18;;;;;;;25.65;100.00;100319.47;5111579;28;20201;-67
2022/07/03 03:02:54;;;;;;;10.25;6.47;;;;;;;25.78;100.00;100349.91;5092595;28;20212;-67
2022/07/03 03:05:31;;;;;;;10.00;6.60;;;;;;;25.88;100.00;100356.53;5111659;28;20224;-66
2022/07/03 03:08:06;;;;;;;10.15;6.63;;;;;;;26.09;100.00;100366.22;5111547;28;20193;-66
2022/07/03 03:10:36;;;;;;;8.82;6.78;;;;;;;26.18;100.00;100372.13;5092143;28;20197;-66
2022/07/03 03:13:05;;;;;;;15.63;7.28;;;;;;;26.08;100.00;100376.91;5110649;28;20193;-67
2022/07/03 03:15:35;;;;;;;9.80;6.47;;;;;;;26.11;100.00;100376.81;5110920;28;20198;-67
2022/07/03 03:18:04;;;;;;;9.13;7.38;;;;;;;26.20;100.00;100380.88;5110995;28;20193;-68
2022/07/03 03:20:33;;;;;;;8.80;7.25;;;;;;;26.03;100.00;100376.28;5110931;28;20292;-67
2022/07/03 03:23:12;;;;;;;11.15;7.72;;;;;;;25.74;100.00;100353.63;5111063;28;20197;-67
2022/07/03 03:25:39;;;;;;;8.35;6.60;;;;;;;25.95;100.00;100379.25;5108557;28;20210;-67
2022/07/03 03:28:06;;;;;;;14.00;7.68;;;;;;;26.01;100.00;100376.31;5110860;28;20201;-67
2022/07/03 03:30:36;;;;;;;12.82;7.38;;;;;;;26.03;100.00;100379.81;5110906;28;20217;-68
2022/07/03 03:33:04;;;;;;;8.10;7.35;;;;;;;26.04;100.00;100384.16;5110587;28;20198;-66
2022/07/03 03:35:31;;;;;;;8.68;7.43;;;;;;;26.00;100.00;100379.06;5100480;28;20216;-66
2022/07/03 03:37:57;;;;;;;10.07;7.68;;;;;;;26.09;100.00;100389.28;5110473;28;20688;-66
2022/07/03 03:40:24;;;;;;;8.60;7.75;;;;;;;26.24;100.00;100382.47;5088084;28;20204;-68
2022/07/03 03:42:51;;;;;;;12.25;7.57;;;;;;;26.35;100.00;100380.19;5090857;28;20209;-66
2022/07/03 03:45:18;;;;;;;14.73;7.90;;;;;;;26.31;100.00;100387.44;5094192;28;20607;-67
2022/07/03 03:47:46;;;;;;;11.18;7.50;;;;;;;26.30;100.00;100383.06;5094146;28;20213;-67
2022/07/03 03:50:13;;;;;;;11.95;8.85;;;;;;;26.38;100.00;100385.38;5101891;28;20201;-66
2022/07/03 03:52:40;;;;;;;9.63;8.20;;;;;;;26.37;100.00;100383.63;5113917;28;20190;-67
2022/07/03 03:55:08;;;;;;;11.85;8.70;;;;;;;26.26;100.00;100362.84;5114163;28;20205;-67
2022/07/03 03:57:36;;;;;;;10.82;8.10;;;;;;;25.92;100.00;100391.81;5114159;28;20203;-66
2022/07/03 04:00:04;;;;;;;12.30;8.63;;;;;;;25.70;100.00;100386.53;5111592;28;20193;-67
2022/07/03 04:02:31;;;;;;;11.38;8.13;;;;;;;25.89;100.00;100398.13;5086528;28;20206;-67
2022/07/03 04:05:00;;;;;;;9.63;8.52;;;;;;;26.02;100.00;100395.81;5113791;28;20221;-67
2022/07/03 04:07:27;;;;;;;15.43;8.88;;;;;;;26.03;100.00;100401.06;5113253;28;20216;-67
2022/07/03 04:09:53;;;;;;;10.30;9.25;;;;;;;25.94;100.00;100395.25;5114551;28;20205;-67
2022/07/03 04:12:20;;;;;;;16.83;9.35;;;;;;;25.98;100.00;100395.06;5113691;28;20201;-67
2022/07/03 04:14:47;;;;;;;16.90;9.90;;;;;;;26.07;100.00;100413.28;5094473;28;20205;-67
2022/07/03 04:17:15;;;;;;;18.50;11.60;;;;;;;25.92;100.00;100410.41;5113767;28;20208;-67
2022/07/03 04:19:42;;;;;;;18.20;11.25;;;;;;;25.99;100.00;100404.78;5110847;28;20680;-67
2022/07/03 04:22:10;;;;;;;12.90;11.15;;;;;;;26.06;100.00;100414.22;5113518;28;20189;-66
2022/07/03 04:24:37;;;;;;;19.90;12.38;;;;;;;26.06;100.00;100405.38;5094245;28;20273;-66
2022/07/03 04:27:05;;;;;;;15.10;11.35;;;;;;;26.10;100.00;100413.16;5113290;28;20196;-67
2022/07/03 04:29:31;;;;;;;19.27;11.98;;;;;;;26.04;100.00;100405.44;5113401;28;20206;-67
2022/07/03 04:31:58;;;;;;;17.55;11.23;;;;;;;26.28;100.00;100411.53;5113911;28;20229;-67
2022/07/03 04:34:25;;;;;;;16.67;10.57;;;;;;;26.35;100.00;100404.13;5113768;28;20197;-67
2022/07/03 04:36:52;;;;;;;15.93;11.35;;;;;;;26.49;100.00;100417.66;5112907;28;20676;-64
2022/07/03 04:39:20;;;;;;;16.50;11.02;;;;;;;26.52;100.00;100420.19;5113344;28;20208;-66
2022/07/03 04:41:47;;;;;;;13.13;9.95;;;;;;;26.45;100.00;100421.41;5113086;28;20213;-64
2022/07/03 04:44:14;;;;;;;20.63;10.45;;;;;;;26.73;100.00;100421.00;5113576;28;20197;-69
2022/07/03 04:46:41;;;;;;;13.68;9.98;;;;;;;27.58;100.00;100439.16;5113548;28;20689;-69
2022/07/03 04:49:08;;;;;;;10.68;9.32;;;;;;;28.45;100.00;100430.25;5112990;28;20234;-69
2022/07/03 04:51:34;;;;;;;11.77;9.40;;;;;;;28.78;100.00;100417.81;5113129;28;20212;-69
2022/07/03 04:54:01;;;;;;;12.10;9.57;;;;;;;29.32;100.00;100437.09;5113363;28;20189;-70
2022/07/03 04:56:30;;;;;;;17.25;9.63;;;;;;;29.33;100.00;100441.47;5112281;28;20575;-69
2022/07/03 04:58:56;;;;;;;24.55;9.02;;;;;;;29.19;100.00;100439.53;5094582;28;20205;-69
2022/07/03 05:01:23;;;;;;;13.75;9.95;;;;;;;29.53;100.00;100443.88;5113207;28;20201;-69
2022/07/03 05:03:50;;;;;;;12.65;9.30;;;;;;;30.40;98.33;100444.94;5113276;28;20262;-71
2022/07/03 05:06:17;;;;;;;14.73;8.52;;;;;;;31.36;88.96;100445.13;5113212;27;20224;-67
2022/07/03 05:08:44;;;;;;;11.07;8.32;;;;;;;31.61;82.77;100444.41;5112301;28;20208;-69
2022/07/03 05:11:10;;;;;;;13.70;8.65;;;;;;;32.62;77.90;100444.66;5112812;28;20193;-66
2022/07/03 05:13:39;;;;;;;9.98;8.27;;;;;;;33.35;75.33;100434.88;5077333;28;20200;-71
2022/07/03 05:16:05;;;;;;;10.80;7.70;;;;;;;33.25;72.91;100444.56;5112964;28;20207;-70
2022/07/03 05:18:33;;;;;;;13.27;8.13;;;;;;;33.95;70.38;100445.59;5112339;28;20198;-67
2022/07/03 05:21:00;;;;;;;9.38;8.32;;;;;;;33.43;70.61;100453.97;5111991;28;20196;-69
2022/07/03 05:23:27;;;;;;;15.00;8.35;;;;;;;33.19;73.38;100445.88;5111211;28;20204;-74
2022/07/03 05:25:55;;;;;;;40.53;25.70;;;;;;;32.81;77.33;100445.94;5112016;28;20223;-67
2022/07/03 05:28:22;;;;;;;11.98;10.18;;;;;;;33.04;76.41;100451.47;5112273;28;20200;-66
2022/07/03 05:30:50;;;;;;;16.38;8.60;;;;;;;33.51;73.55;100438.13;5107139;28;20248;-68
2022/07/03 05:33:17;;;;;;;25.33;14.40;;;;;;;33.77;71.12;100455.91;5089992;28;20213;-70
2022/07/03 05:35:43;;;;;;;14.05;9.18;;;;;;;33.08;74.54;100452.97;5096290;28;20248;-71
2022/07/03 05:38:10;;;;;;;14.63;9.85;;;;;;;33.63;72.69;100455.22;5068761;28;20209;-72
2022/07/03 05:40:36;;;;;;;19.95;9.55;;;;;;;33.54;72.87;100456.72;5052412;28;20197;-70
2022/07/03 05:43:03;;;;;;;12.27;8.95;;;;;;;33.14;73.81;100452.56;5088516;28;20209;-70
2022/07/03 05:45:30;;;;;;;11.55;9.48;;;;;;;31.73;83.56;100454.31;5099733;28;20235;-68
2022/07/03 05:47:58;;;;;;;10.93;8.73;;;;;;;31.66;87.57;100453.88;5104857;28;20197;-69
2022/07/03 05:50:25;;;;;;;13.57;10.15;;;;;;;31.67;87.99;100455.59;5107620;28;20238;-70
2022/07/03 05:52:51;;;;;;;13.15;10.15;;;;;;;31.70;86.59;100460.75;5107948;28;20200;-70
2022/07/03 05:55:18;;;;;;;20.58;10.18;;;;;;;31.49;87.19;100464.81;5109163;28;20197;-68
2022/07/03 05:57:45;;;;;;;14.75;9.48;;;;;;;31.31;87.89;100457.97;5104405;28;20601;-68
2022/07/03 06:00:13;;;;;;;18.35;10.23;;;;;;;31.47;87.89;100458.69;5108107;28;20216;-68
2022/07/03 06:02:40;;;;;;;18.42;9.40;;;;;;;30.91;91.84;100460.50;5107918;28;20212;-68
2022/07/03 06:05:09;;;;;;;16.33;10.50;;;;;;;30.70;93.11;100429.69;5107932;28;20232;-68
2022/07/03 06:07:36;;;;;;;17.10;11.02;;;;;;;30.38;96.83;100465.59;5108384;28;20215;-67
2022/07/03 06:10:03;;;;;;;12.60;10.90;;;;;;;30.26;98.89;100466.31;5072006;28;20216;-68
2022/07/03 06:12:29;;;;;;;15.93;10.88;;;;;;;30.47;97.73;100462.38;5107717;28;20247;-68
2022/07/03 06:14:56;;;;;;;29.23;18.38;;;;;;;30.59;98.64;100458.94;5107817;28;20586;-70
2022/07/03 06:17:23;;;;;;;35.63;20.45;;;;;;;31.21;94.91;100473.81;5107869;28;20204;-69
2022/07/03 06:19:50;;;;;;;19.63;10.93;;;;;;;31.51;89.20;100468.25;5108157;28;20213;-69
2022/07/03 06:22:18;;;;;;;14.68;9.23;;;;;;;31.49;87.65;100470.19;5107252;28;20720;-69
2022/07/03 06:24:45;;;;;;;12.25;9.23;;;;;;;30.90;92.19;100455.22;5107401;28;20232;-69
2022/07/03 06:27:12;;;;;;;13.60;9.20;;;;;;;30.94;92.85;100462.97;5101308;28;20204;-68
2022/07/03 06:29:38;;;;;;;12.57;9.88;;;;;;;31.04;92.08;100465.94;5087607;28;20206;-69
2022/07/03 06:32:06;;;;;;;15.27;8.55;;;;;;;30.88;90.07;100454.47;5092258;28;20204;-66
2022/07/03 06:34:33;;;;;;;14.15;8.90;;;;;;;30.45;93.20;100456.25;5090587;28;20288;-67
2022/07/03 06:36:59;;;;;;;9.98;8.93;;;;;;;30.72;92.79;100464.41;5096043;28;20672;-67
2022/07/03 06:39:28;;;;;;;17.05;11.27;;;;;;;30.77;93.29;100456.94;5093149;28;20206;-66
2022/07/03 06:41:54;;;;;;;10.65;8.82;;;;;;;31.25;91.39;100459.22;5088980;28;20201;-67
2022/07/03 06:44:21;;;;;;;14.27;8.27;;;;;;;31.52;86.43;100459.28;5088793;28;20621;-66
2022/07/03 06:46:48;;;;;;;14.60;9.05;;;;;;;31.66;86.62;100464.59;5090888;28;20225;-66
2022/07/03 06:49:15;;;;;;;14.60;11.02;;;;;;;31.29;87.17;100459.88;5088750;28;20527;-66
2022/07/03 06:51:42;;;;;;;20.40;13.35;;;;;;;30.30;92.65;100454.47;5059165;28;20692;-66
2022/07/03 06:54:08;;;;;;;11.45;10.00;;;;;;;30.59;93.91;100452.72;5087303;28;20197;-66
2022/07/03 06:56:37;;;;;;;11.48;10.07;;;;;;;30.53;93.69;100464.69;5088156;28;20599;-68
2022/07/03 06:59:04;;;;;;;77.18;35.28;;;;;;;30.38;94.73;100469.13;5096901;28;20197;-67
2022/07/03 07:01:31;;;;;;;31.77;21.63;;;;;;;30.30;95.84;100463.38;5097615;28;20200;-67
2022/07/03 07:03:58;;;;;;;15.40;10.55;;;;;;;30.47;92.88;100424.91;5088041;28;20201;-68
2022/07/03 07:06:24;;;;;;;17.60;10.70;;;;;;;30.80;92.32;100454.06;5089002;28;20294;-68
2022/07/03 07:08:51;;;;;;;105.22;65.97;;;;;;;31.00;90.98;100468.94;5092113;28;20198;-68
2022/07/03 07:11:18;;;;;;;48.33;24.73;;;;;;;31.38;91.98;100467.34;5078251;28;20201;-68
2022/07/03 07:13:46;;;;;;;15.60;10.38;;;;;;;31.46;90.08;100457.81;5096696;28;20676;-67
2022/07/03 07:16:13;;;;;;;15.00;9.63;;;;;;;31.64;85.76;100465.69;5095133;28;20286;-69
2022/07/03 07:18:42;;;;;;;17.05;9.52;;;;;;;31.55;84.55;100432.28;5106003;28;20224;-68
2022/07/03 07:21:11;;;;;;;18.00;9.98;;;;;;;32.05;82.90;100465.56;5110393;28;20208;-67
2022/07/03 07:23:37;;;;;;;21.77;9.93;;;;;;;31.87;83.08;100467.69;5111083;28;20255;-67
2022/07/03 07:26:05;;;;;;;20.05;9.07;;;;;;;31.94;82.74;100443.00;5111107;28;20708;-67
2022/07/03 07:28:33;;;;;;;15.38;9.00;;;;;;;31.82;86.03;100451.88;5111222;28;20213;-68
2022/07/03 07:31:01;;;;;;;21.35;9.13;;;;;;;32.17;83.74;100456.72;5110985;28;20228;-68
2022/07/03 07:33:28;;;;;;;16.33;9.32;;;;;;;31.93;83.99;100448.47;5091515;28;20204;-68
2022/07/03 07:35:55;;;;;;;14.88;9.40;;;;;;;31.81;87.47;100458.22;5111472;28;20251;-68
2022/07/03 07:38:22;;;;;;;18.33;8.77;;;;;;;31.26;88.67;100441.31;5111112;28;20269;-68
2022/07/03 07:40:49;;;;;;;14.57;8.20;;;;;;;31.67;87.94;100444.00;5111005;28;20205;-68
2022/07/03 07:43:15;;;;;;;14.63;8.07;;;;;;;31.30;87.49;100451.75;5110108;28;20590;-69
2022/07/03 07:45:42;;;;;;;13.98;9.48;;;;;;;31.56;86.92;100452.78;5110966;28;20242;-69
2022/07/03 07:48:10;;;;;;;17.45;9.23;;;;;;;31.90;84.25;100452.22;5110672;28;20293;-68
2022/07/03 07:50:37;;;;;;;14.55;8.82;;;;;;;32.11;84.09;100459.81;5110476;28;20200;-68
2022/07/03 07:53:04;;;;;;;14.82;9.90;;;;;;;31.93;86.67;100464.56;5109976;28;20197;-73
2022/07/03 07:55:31;;;;;;;14.75;8.93;;;;;;;31.96;83.30;100462.53;5110535;28;20251;-69
2022/07/03 07:57:57;;;;;;;16.60;9.13;;;;;;;32.02;81.50;100465.78;5100729;27;20196;-70
2022/07/03 08:00:24;;;;;;;16.23;8.25;;;;;;;31.93;81.00;100457.38;5110710;28;20201;-70
2022/07/03 08:05:37;;;;;;;17.85;8.13;;;;;;;32.25;80.41;100462.44;5101371;28;20757;-69
2022/07/03 08:08:06;;;;;;;8.27;7.28;;;;;;;32.26;78.83;100464.13;5109755;28;20204;-68
2022/07/03 08:10:36;;;;;;;11.27;7.82;;;;;;;31.83;83.23;100468.84;5102144;28;20575;-69
2022/07/03 08:13:03;;;;;;;11.75;8.02;;;;;;;32.09;81.22;100461.75;5109627;28;20615;-69
2022/07/03 08:15:30;;;;;;;17.92;7.82;;;;;;;31.91;82.45;100470.06;5097836;28;20270;-68
2022/07/03 08:17:57;;;;;;;22.00;8.40;;;;;;;32.33;78.46;100466.31;5110513;28;20228;-68
2022/07/03 08:20:23;;;;;;;11.90;8.32;;;;;;;32.45;77.59;100464.59;5109877;28;20216;-68
2022/07/03 08:22:52;;;;;;;12.93;7.88;;;;;;;32.25;78.34;100470.50;5109698;28;20215;-68
2022/07/03 08:25:19;;;;;;;15.55;8.63;;;;;;;32.43;80.64;100470.06;5110204;28;20223;-68
2022/07/03 08:27:46;;;;;;;11.20;7.68;;;;;;;33.37;73.97;100470.56;5110418;28;20201;-68
2022/07/03 08:30:17;;;;;;;9.13;8.23;;;;;;;33.90;71.25;100474.66;5105625;28;20245;-68
2022/07/03 08:32:44;;;;;;;14.88;8.10;;;;;;;34.18;72.43;100473.44;5109583;28;20204;-68
2022/07/03 08:35:11;;;;;;;11.43;7.63;;;;;;;34.78;64.51;100476.78;5109863;28;20294;-69
2022/07/03 08:37:40;;;;;;;13.85;7.75;;;;;;;35.04;63.45;100473.84;5110231;28;20208;-68
2022/07/03 08:40:10;;;;;;;14.95;8.25;;;;;;;34.87;64.50;100477.03;5109695;28;20283;-69
2022/07/03 08:42:38;;;;;;;20.15;12.43;;;;;;;34.62;63.82;100480.78;5109088;28;20830;-68
2022/07/03 08:45:09;;;;;;;27.98;17.55;;;;;;;34.32;66.15;100473.25;5109593;28;20215;-68
2022/07/03 08:47:38;;;;;;;10.93;7.80;;;;;;;34.19;65.42;100467.09;5109638;28;20240;-68
2022/07/03 08:50:06;;;;;;;12.32;7.57;;;;;;;33.77;66.86;100479.25;5109356;28;20237;-68
2022/07/03 08:52:35;;;;;;;10.48;7.47;;;;;;;34.08;66.49;100485.88;5072286;28;20237;-68
2022/07/03 08:55:03;;;;;;;9.18;8.18;;;;;;;34.38;64.74;100477.31;5109486;28;20580;-70
2022/07/03 08:57:32;;;;;;;10.82;7.93;;;;;;;34.27;63.55;100453.91;5097914;28;20194;-70
2022/07/03 09:00:02;;;;;;;10.15;7.47;;;;;;;34.43;65.50;100477.78;5089969;28;20212;-69
2022/07/03 09:02:30;;;;;;;13.40;7.13;;;;;;;34.15;64.54;100473.69;5091257;28;20211;-69
2022/07/03 09:04:57;;;;;;;12.40;7.28;;;;;;;34.18;64.04;100470.75;5089799;28;20696;-69
2022/07/03 09:07:26;;;;;;;8.20;7.28;;;;;;;33.72;65.71;100460.75;5092512;28;20260;-69
2022/07/03 09:09:53;;;;;;;10.00;7.28;;;;;;;33.48;65.52;100402.53;5090585;28;20246;-70
2022/07/03 09:12:21;;;;;;;9.32;7.30;;;;;;;33.78;65.85;100459.47;5094108;28;20213;-70
2022/07/03 09:14:49;;;;;;;8.35;6.97;;;;;;;33.51;66.19;100467.72;5088514;28;20197;-69
2022/07/03 09:17:16;;;;;;;13.45;6.80;;;;;;;33.30;66.69;100474.66;5093543;28;20692;-68
2022/07/03 09:19:46;;;;;;;9.82;7.35;;;;;;;33.61;66.31;100467.88;5101664;28;20209;-69
2022/07/03 09:22:24;;;;;;;13.02;7.60;;;;;;;34.16;63.87;100460.13;5023275;28;20228;-70
2022/07/03 09:24:53;;;;;;;11.25;7.28;;;;;;;34.48;63.65;100464.84;5108238;28;20208;-68
2022/07/03 09:27:21;;;;;;;19.95;7.65;;;;;;;34.67;61.69;100471.41;5108601;28;20233;-67
2022/07/03 09:30:00;;;;;;;21.95;7.43;;;;;;;35.10;59.15;100468.84;5109246;28;20208;-66
2022/07/03 09:32:31;;;;;;;10.13;6.95;;;;;;;34.89;59.64;100465.13;5107429;28;20204;-66
2022/07/03 09:35:17;;;;;;;8.13;6.63;;;;;;;34.62;60.52;100446.66;5108948;28;20209;-66
2022/07/03 09:37:49;;;;;;;9.25;7.50;;;;;;;34.40;60.52;100451.09;5108783;28;20751;-66
2022/07/03 09:40:17;;;;;;;17.95;7.75;;;;;;;33.99;63.05;100463.22;5108824;28;20209;-66
2022/07/03 09:42:58;;;;;;;12.07;7.82;;;;;;;34.18;64.18;100441.13;5107302;28;20250;-67
2022/07/03 09:45:26;;;;;;;8.32;6.43;;;;;;;34.11;63.91;100450.63;5107761;28;20208;-67
2022/07/03 09:47:53;;;;;;;9.23;7.13;;;;;;;33.89;64.60;100457.66;5105633;28;20227;-66
2022/07/03 09:50:20;;;;;;;10.07;7.20;;;;;;;33.55;66.30;100450.38;5108356;28;20258;-67
2022/07/03 09:52:48;;;;;;;7.85;6.97;;;;;;;33.53;65.47;100446.97;5108387;28;20208;-66
2022/07/03 09:55:18;;;;;;;19.50;7.50;;;;;;;33.74;65.21;100441.84;5108576;28;20250;-67
2022/07/03 09:57:47;;;;;;;9.85;6.25;;;;;;;33.54;66.23;100428.97;5108316;28;20250;-68
2022/07/03 10:00:16;;;;;;;6.97;6.38;;;;;;;33.62;64.52;100427.47;5108079;28;20269;-69
2022/07/03 10:03:04;;;;;;;15.00;7.43;;;;;;;33.93;63.25;100425.16;5107873;28;20880;-68
2022/07/03 10:05:34;;;;;;;10.93;6.93;;;;;;;33.16;65.32;100429.97;5108484;28;20759;-69
2022/07/03 10:08:03;;;;;;;8.50;6.78;;;;;;;33.15;64.84;100422.88;5108495;28;20227;-69
2022/07/03 10:10:32;;;;;;;8.98;6.47;;;;;;;33.30;61.85;100399.38;5108198;28;20613;-68
2022/07/03 10:12:59;;;;;;;8.70;6.30;;;;;;;33.63;59.08;100407.66;5107624;28;20209;-70
2022/07/03 10:15:28;;;;;;;7.22;6.53;;;;;;;33.83;56.16;100414.22;5107995;28;20212;-69
2022/07/03 10:17:56;;;;;;;7.20;6.43;;;;;;;33.85;58.77;100407.72;5108243;28;20454;-66
2022/07/03 10:20:29;;;;;;;9.00;5.97;;;;;;;33.92;57.15;100394.69;5107928;28;20208;-67
2022/07/03 10:22:56;;;;;;;8.75;6.30;;;;;;;33.73;62.04;100408.69;5107412;28;20209;-67
2022/07/03 10:25:24;;;;;;;12.25;6.43;;;;;;;33.55;61.83;100391.22;5103686;28;20213;-67
2022/07/03 10:27:51;;;;;;;8.70;6.97;;;;;;;33.60;60.33;100410.56;5100566;28;20231;-67
2022/07/03 10:30:20;;;;;;;11.35;6.22;;;;;;;33.80;57.82;100396.47;5104655;28;20227;-68
2022/07/03 10:32:48;;;;;;;10.48;6.80;;;;;;;33.61;58.85;100371.91;5108152;27;20205;-67
2022/07/03 10:35:19;;;;;;;7.30;6.60;;;;;;;33.50;57.71;100389.84;5106478;28;20197;-67
2022/07/03 10:38:14;;;;;;;7.15;6.10;;;;;;;33.68;57.31;100394.69;5106056;28;20845;-67
2022/07/03 10:46:24;;;;;;;9.45;5.50;;;;;;;33.33;52.85;100396.47;5100728;28;20852;-67
2022/07/03 10:48:59;;;;;;;8.75;4.78;;;;;;;33.04;50.97;100370.84;5105420;28;20205;-67
2022/07/03 10:51:27;;;;;;;5.32;4.80;;;;;;;33.31;50.56;100395.75;5106594;28;20207;-67
2022/07/03 10:54:19;;;;;;;5.78;5.00;;;;;;;33.47;50.11;100390.91;5106578;28;20203;-68
2022/07/03 10:57:09;;;;;;;8.95;4.65;;;;;;;33.57;48.34;100391.94;5106919;28;20200;-68
2022/07/03 11:00:13;;;;;;;7.95;4.72;;;;;;;33.53;47.86;100395.84;5107179;28;20241;-67
2022/07/03 11:02:41;;;;;;;8.05;5.10;;;;;;;33.59;47.64;100373.00;5043537;28;20206;-67
2022/07/03 11:05:14;;;;;;;11.07;4.88;;;;;;;34.29;46.53;100381.94;5043816;28;20264;-67
2022/07/03 11:08:03;;;;;;;5.32;4.80;;;;;;;34.39;44.85;100377.53;5043687;28;20253;-67
2022/07/03 11:10:33;;;;;;;6.32;4.68;;;;;;;34.54;43.93;100376.31;5038252;28;20843;-68
2022/07/03 11:13:00;;;;;;;9.18;4.53;;;;;;;34.81;44.38;100390.31;5043831;28;20207;-67
2022/07/03 11:15:29;;;;;;;5.35;4.60;;;;;;;35.21;42.92;100384.41;4993938;28;20593;-69
2022/07/03 11:18:19;;;;;;;10.85;4.70;;;;;;;35.60;43.39;100370.28;5041598;28;20675;-69
2022/07/03 11:21:31;;;;;;;10.63;8.73;;;;;;;35.70;42.83;100371.25;5043420;28;20210;-67
2022/07/03 11:24:28;;;;;;;133.40;72.90;;;;;;;36.12;43.85;100374.81;5042533;28;20585;-68
2022/07/03 11:27:22;;;;;;;9.38;5.13;;;;;;;36.20;42.78;100371.47;5042108;28;20241;-68
2022/07/03 11:29:51;;;;;;;6.82;4.57;;;;;;;34.80;44.92;100363.47;5036223;28;20207;-68
2022/07/03 11:32:50;;;;;;;5.72;4.63;;;;;;;34.27;45.91;100360.53;5038946;28;20214;-67
2022/07/03 11:35:55;;;;;;;7.65;4.50;;;;;;;34.31;43.86;100353.06;4983201;28;20295;-67